sensor_id;sensor_type;location;lat;lon;timestamp;temperature;humidity
79571;DHT22;69034;49.444;7.758;2023-09-19T00:02:32;21.50;59.80
79571;DHT22;69034;49.444;7.758;2023-09-19T00:06:33;21.40;60.00
79571;DHT22;69034;49.444;7.758;2023-09-19T00:10:34;21.40;60.00
79571;DHT22;69034;49.444;7.758;2023-09-19T00:14:38;21.50;60.00
79571;DHT22;69034;49.444;7.758;2023-09-19T00:18:39;21.60;60.00
79571;DHT22;69034;49.444;7.758;2023-09-19T00:22:41;21.60;59.80
79571;DHT22;69034;49.444;7.758;2023-09-19T00:26:43;21.70;59.70
79571;DHT22;69034;49.444;7.758;2023-09-19T00:30:44;21.70;59.70
79571;DHT22;69034;49.444;7.758;2023-09-19T00:34:45;21.80;59.60
79571;DHT22;69034;49.444;7.758;2023-09-19T00:38:47;21.80;59.60
79571;DHT22;69034;49.444;7.758;2023-09-19T00:42:49;21.80;59.60
79571;DHT22;69034;49.444;7.758;2023-09-19T00:46:52;21.70;59.80
79571;DHT22;69034;49.444;7.758;2023-09-19T00:50:53;21.70;59.90
79571;DHT22;69034;49.444;7.758;2023-09-19T00:54:54;21.60;60.30
79571;DHT22;69034;49.444;7.758;2023-09-19T00:58:57;21.50;60.50
79571;DHT22;69034;49.444;7.758;2023-09-19T01:02:57;21.50;60.50
79571;DHT22;69034;49.444;7.758;2023-09-19T01:06:58;21.40;60.80
79571;DHT22;69034;49.444;7.758;2023-09-19T01:21:11;21.30;61.10
79571;DHT22;69034;49.444;7.758;2023-09-19T01:29:46;21.30;60.90
79571;DHT22;69034;49.444;7.758;2023-09-19T01:37:58;21.30;61.10
79571;DHT22;69034;49.444;7.758;2023-09-19T01:46:34;21.30;61.20
79571;DHT22;69034;49.444;7.758;2023-09-19T01:50:55;21.20;61.30
79571;DHT22;69034;49.444;7.758;2023-09-19T01:55:02;21.10;61.50
79571;DHT22;69034;49.444;7.758;2023-09-19T01:59:12;21.00;61.60
79571;DHT22;69034;49.444;7.758;2023-09-19T02:03:14;21.00;61.80
79571;DHT22;69034;49.444;7.758;2023-09-19T02:07:16;20.90;61.90
79571;DHT22;69034;49.444;7.758;2023-09-19T02:11:17;20.80;62.20
79571;DHT22;69034;49.444;7.758;2023-09-19T02:15:19;20.70;62.20
79571;DHT22;69034;49.444;7.758;2023-09-19T02:19:21;20.60;62.20
79571;DHT22;69034;49.444;7.758;2023-09-19T02:23:21;20.50;62.20
79571;DHT22;69034;49.444;7.758;2023-09-19T02:27:22;20.40;62.30
79571;DHT22;69034;49.444;7.758;2023-09-19T02:31:23;20.30;62.30
79571;DHT22;69034;49.444;7.758;2023-09-19T02:35:24;20.20;62.40
79571;DHT22;69034;49.444;7.758;2023-09-19T02:39:26;20.10;62.50
79571;DHT22;69034;49.444;7.758;2023-09-19T02:43:28;20.00;62.70
79571;DHT22;69034;49.444;7.758;2023-09-19T02:47:29;19.90;62.70
79571;DHT22;69034;49.444;7.758;2023-09-19T02:51:31;19.90;62.70
79571;DHT22;69034;49.444;7.758;2023-09-19T02:55:32;19.80;62.70
79571;DHT22;69034;49.444;7.758;2023-09-19T02:59:34;19.80;62.80
79571;DHT22;69034;49.444;7.758;2023-09-19T03:03:37;19.70;62.80
79571;DHT22;69034;49.444;7.758;2023-09-19T03:07:39;19.60;62.90
79571;DHT22;69034;49.444;7.758;2023-09-19T03:11:40;19.60;63.00
79571;DHT22;69034;49.444;7.758;2023-09-19T03:15:43;19.50;62.90
79571;DHT22;69034;49.444;7.758;2023-09-19T03:19:50;19.50;62.90
79571;DHT22;69034;49.444;7.758;2023-09-19T03:23:52;19.40;63.00
79571;DHT22;69034;49.444;7.758;2023-09-19T03:27:52;19.40;63.20
79571;DHT22;69034;49.444;7.758;2023-09-19T03:31:53;19.30;63.20
79571;DHT22;69034;49.444;7.758;2023-09-19T03:35:55;19.30;63.40
79571;DHT22;69034;49.444;7.758;2023-09-19T03:39:55;19.20;63.30
79571;DHT22;69034;49.444;7.758;2023-09-19T03:43:56;19.20;63.40
79571;DHT22;69034;49.444;7.758;2023-09-19T03:47:57;19.20;63.40
79571;DHT22;69034;49.444;7.758;2023-09-19T03:51:58;19.10;63.30
79571;DHT22;69034;49.444;7.758;2023-09-19T03:55:58;19.10;63.50
79571;DHT22;69034;49.444;7.758;2023-09-19T04:00:00;19.10;63.60
79571;DHT22;69034;49.444;7.758;2023-09-19T04:04:01;19.00;63.60
79571;DHT22;69034;49.444;7.758;2023-09-19T04:08:08;19.00;63.70
79571;DHT22;69034;49.444;7.758;2023-09-19T04:12:09;19.00;63.70
79571;DHT22;69034;49.444;7.758;2023-09-19T04:16:09;19.00;64.00
79571;DHT22;69034;49.444;7.758;2023-09-19T04:20:11;19.10;64.00
79571;DHT22;69034;49.444;7.758;2023-09-19T04:24:12;19.20;64.00
79571;DHT22;69034;49.444;7.758;2023-09-19T04:28:14;19.30;63.90
79571;DHT22;69034;49.444;7.758;2023-09-19T04:32:15;19.30;63.90
79571;DHT22;69034;49.444;7.758;2023-09-19T04:36:17;19.40;64.00
79571;DHT22;69034;49.444;7.758;2023-09-19T04:40:18;19.70;64.60
79571;DHT22;69034;49.444;7.758;2023-09-19T04:44:21;20.40;63.40
79571;DHT22;69034;49.444;7.758;2023-09-19T04:48:22;20.70;62.60
79571;DHT22;69034;49.444;7.758;2023-09-19T04:52:25;20.90;62.20
79571;DHT22;69034;49.444;7.758;2023-09-19T04:56:26;21.00;61.90
79571;DHT22;69034;49.444;7.758;2023-09-19T05:00:28;21.10;61.70
79571;DHT22;69034;49.444;7.758;2023-09-19T05:04:31;21.10;61.50
79571;DHT22;69034;49.444;7.758;2023-09-19T05:08:32;21.20;61.20
79571;DHT22;69034;49.444;7.758;2023-09-19T05:12:36;21.20;61.20
79571;DHT22;69034;49.444;7.758;2023-09-19T05:16:37;21.20;61.10
79571;DHT22;69034;49.444;7.758;2023-09-19T05:20:38;21.20;60.90
79571;DHT22;69034;49.444;7.758;2023-09-19T05:24:41;21.20;60.80
79571;DHT22;69034;49.444;7.758;2023-09-19T05:28:43;21.30;60.50
79571;DHT22;69034;49.444;7.758;2023-09-19T05:32:43;21.30;60.50
79571;DHT22;69034;49.444;7.758;2023-09-19T05:36:44;21.20;60.40
79571;DHT22;69034;49.444;7.758;2023-09-19T05:40:45;21.10;60.50
79571;DHT22;69034;49.444;7.758;2023-09-19T05:44:46;20.90;60.60
79571;DHT22;69034;49.444;7.758;2023-09-19T05:48:46;20.60;60.70
79571;DHT22;69034;49.444;7.758;2023-09-19T05:52:53;20.30;61.20
79571;DHT22;69034;49.444;7.758;2023-09-19T05:56:54;20.10;61.60
79571;DHT22;69034;49.444;7.758;2023-09-19T06:00:55;20.00;62.30
79571;DHT22;69034;49.444;7.758;2023-09-19T06:04:57;20.20;61.80
79571;DHT22;69034;49.444;7.758;2023-09-19T06:08:58;20.40;61.30
79571;DHT22;69034;49.444;7.758;2023-09-19T06:12:59;20.40;61.10
79571;DHT22;69034;49.444;7.758;2023-09-19T06:16:59;20.40;61.20
79571;DHT22;69034;49.444;7.758;2023-09-19T06:21:00;20.30;61.30
79571;DHT22;69034;49.444;7.758;2023-09-19T06:25:05;20.40;61.00
79571;DHT22;69034;49.444;7.758;2023-09-19T06:29:06;20.60;61.10
79571;DHT22;69034;49.444;7.758;2023-09-19T06:33:08;20.70;61.10
79571;DHT22;69034;49.444;7.758;2023-09-19T06:37:09;20.80;60.90
79571;DHT22;69034;49.444;7.758;2023-09-19T06:41:09;20.90;60.60
79571;DHT22;69034;49.444;7.758;2023-09-19T06:45:10;20.90;60.30
79571;DHT22;69034;49.444;7.758;2023-09-19T06:49:18;21.00;60.10
79571;DHT22;69034;49.444;7.758;2023-09-19T06:53:18;21.10;59.80
79571;DHT22;69034;49.444;7.758;2023-09-19T06:57:19;21.30;59.40
79571;DHT22;69034;49.444;7.758;2023-09-19T07:01:20;21.50;59.10
79571;DHT22;69034;49.444;7.758;2023-09-19T07:05:20;21.60;58.70
79571;DHT22;69034;49.444;7.758;2023-09-19T07:09:22;21.80;58.40
79571;DHT22;69034;49.444;7.758;2023-09-19T07:13:23;21.80;58.00
79571;DHT22;69034;49.444;7.758;2023-09-19T07:17:25;21.70;57.80
79571;DHT22;69034;49.444;7.758;2023-09-19T07:21:27;21.70;57.60
79571;DHT22;69034;49.444;7.758;2023-09-19T07:25:29;21.70;57.40
79571;DHT22;69034;49.444;7.758;2023-09-19T07:29:29;22.10;57.00
79571;DHT22;69034;49.444;7.758;2023-09-19T07:33:30;22.50;55.90
79571;DHT22;69034;49.444;7.758;2023-09-19T07:37:31;22.70;55.00
79571;DHT22;69034;49.444;7.758;2023-09-19T07:41:33;22.80;54.50
79571;DHT22;69034;49.444;7.758;2023-09-19T07:45:34;22.90;54.00
79571;DHT22;69034;49.444;7.758;2023-09-19T07:49:36;23.00;53.90
79571;DHT22;69034;49.444;7.758;2023-09-19T07:53:37;23.10;53.20
79571;DHT22;69034;49.444;7.758;2023-09-19T07:57:38;23.20;52.60
79571;DHT22;69034;49.444;7.758;2023-09-19T08:01:39;23.10;52.00
79571;DHT22;69034;49.444;7.758;2023-09-19T08:05:41;23.30;52.00
79571;DHT22;69034;49.444;7.758;2023-09-19T08:09:43;23.40;51.80
79571;DHT22;69034;49.444;7.758;2023-09-19T08:13:48;23.50;51.40
79571;DHT22;69034;49.444;7.758;2023-09-19T08:17:49;23.60;51.20
79571;DHT22;69034;49.444;7.758;2023-09-19T08:21:50;23.60;50.60
79571;DHT22;69034;49.444;7.758;2023-09-19T08:25:56;23.50;50.50
79571;DHT22;69034;49.444;7.758;2023-09-19T08:29:56;23.70;50.30
79571;DHT22;69034;49.444;7.758;2023-09-19T08:33:57;24.10;50.00
79571;DHT22;69034;49.444;7.758;2023-09-19T08:37:58;24.30;49.30
79571;DHT22;69034;49.444;7.758;2023-09-19T08:42:01;24.50;49.00
79571;DHT22;69034;49.444;7.758;2023-09-19T08:50:19;24.60;48.10
79571;DHT22;69034;49.444;7.758;2023-09-19T08:54:25;24.40;47.90
79571;DHT22;69034;49.444;7.758;2023-09-19T08:58:30;24.40;48.10
79571;DHT22;69034;49.444;7.758;2023-09-19T09:02:31;24.50;47.30
79571;DHT22;69034;49.444;7.758;2023-09-19T09:06:34;24.60;46.80
79571;DHT22;69034;49.444;7.758;2023-09-19T09:10:37;24.70;46.50
79571;DHT22;69034;49.444;7.758;2023-09-19T09:14:47;24.50;46.80
79571;DHT22;69034;49.444;7.758;2023-09-19T09:18:51;24.80;46.20
79571;DHT22;69034;49.444;7.758;2023-09-19T09:22:54;25.10;45.70
79571;DHT22;69034;49.444;7.758;2023-09-19T09:26:58;25.40;45.10
79571;DHT22;69034;49.444;7.758;2023-09-19T09:31:00;25.90;44.40
79571;DHT22;69034;49.444;7.758;2023-09-19T09:35:08;26.00;43.90
79571;DHT22;69034;49.444;7.758;2023-09-19T09:39:10;25.90;43.50
79571;DHT22;69034;49.444;7.758;2023-09-19T09:43:32;25.80;43.10
79571;DHT22;69034;49.444;7.758;2023-09-19T09:47:49;25.80;42.90
79571;DHT22;69034;49.444;7.758;2023-09-19T09:52:07;26.00;42.10
79571;DHT22;69034;49.444;7.758;2023-09-19T09:56:18;25.80;42.10
79571;DHT22;69034;49.444;7.758;2023-09-19T10:00:18;25.60;42.00
79571;DHT22;69034;49.444;7.758;2023-09-19T10:04:28;25.70;41.70
79571;DHT22;69034;49.444;7.758;2023-09-19T10:09:09;26.10;41.40
79571;DHT22;69034;49.444;7.758;2023-09-19T10:13:14;26.90;40.90
79571;DHT22;69034;49.444;7.758;2023-09-19T10:17:18;27.50;39.90
79571;DHT22;69034;49.444;7.758;2023-09-19T10:21:21;28.00;39.60
79571;DHT22;69034;49.444;7.758;2023-09-19T10:25:25;28.50;38.60
79571;DHT22;69034;49.444;7.758;2023-09-19T10:29:29;28.80;38.40
79571;DHT22;69034;49.444;7.758;2023-09-19T10:33:36;29.00;38.10
79571;DHT22;69034;49.444;7.758;2023-09-19T10:37:38;29.10;37.50
79571;DHT22;69034;49.444;7.758;2023-09-19T10:41:40;29.50;36.90
79571;DHT22;69034;49.444;7.758;2023-09-19T10:45:41;30.00;36.50
79571;DHT22;69034;49.444;7.758;2023-09-19T10:49:45;30.80;35.90
79571;DHT22;69034;49.444;7.758;2023-09-19T10:53:52;31.60;35.90
79571;DHT22;69034;49.444;7.758;2023-09-19T10:57:54;31.30;34.20
79571;DHT22;69034;49.444;7.758;2023-09-19T11:01:59;32.40;33.40
79571;DHT22;69034;49.444;7.758;2023-09-19T11:10:05;31.10;33.00
79571;DHT22;69034;49.444;7.758;2023-09-19T11:27:13;35.20;29.70
79571;DHT22;69034;49.444;7.758;2023-09-19T11:31:42;34.80;29.90
79571;DHT22;69034;49.444;7.758;2023-09-19T11:40:10;35.50;28.90
79571;DHT22;69034;49.444;7.758;2023-09-19T11:48:18;35.20;29.30
79571;DHT22;69034;49.444;7.758;2023-09-19T11:52:24;35.20;29.50
79571;DHT22;69034;49.444;7.758;2023-09-19T11:56:26;34.00;29.10
79571;DHT22;69034;49.444;7.758;2023-09-19T12:00:33;32.40;30.30
79571;DHT22;69034;49.444;7.758;2023-09-19T12:04:36;31.70;31.00
79571;DHT22;69034;49.444;7.758;2023-09-19T12:08:41;33.90;29.10
79571;DHT22;69034;49.444;7.758;2023-09-19T12:12:47;34.60;29.30
79571;DHT22;69034;49.444;7.758;2023-09-19T12:16:58;36.10;28.90
79571;DHT22;69034;49.444;7.758;2023-09-19T12:21:01;36.20;28.90
79571;DHT22;69034;49.444;7.758;2023-09-19T12:25:08;37.90;27.30
79571;DHT22;69034;49.444;7.758;2023-09-19T12:29:16;38.70;26.70
79571;DHT22;69034;49.444;7.758;2023-09-19T12:33:20;39.90;26.10
79571;DHT22;69034;49.444;7.758;2023-09-19T12:37:21;40.90;25.50
79571;DHT22;69034;49.444;7.758;2023-09-19T12:41:23;41.80;24.90
79571;DHT22;69034;49.444;7.758;2023-09-19T12:45:23;42.00;19.70
79571;DHT22;69034;49.444;7.758;2023-09-19T12:49:24;42.40;24.20
79571;DHT22;69034;49.444;7.758;2023-09-19T12:53:26;41.90;19.30
79571;DHT22;69034;49.444;7.758;2023-09-19T12:57:29;41.30;19.50
79571;DHT22;69034;49.444;7.758;2023-09-19T13:01:32;40.60;19.90
79571;DHT22;69034;49.444;7.758;2023-09-19T13:05:52;38.20;24.60
79571;DHT22;69034;49.444;7.758;2023-09-19T13:10:03;36.60;25.20
79571;DHT22;69034;49.444;7.758;2023-09-19T13:14:23;36.80;25.20
79571;DHT22;69034;49.444;7.758;2023-09-19T13:18:24;37.50;24.80
79571;DHT22;69034;49.444;7.758;2023-09-19T13:26:39;39.20;24.30
79571;DHT22;69034;49.444;7.758;2023-09-19T13:30:40;40.50;19.70
79571;DHT22;69034;49.444;7.758;2023-09-19T13:34:42;42.00;18.90
79571;DHT22;69034;49.444;7.758;2023-09-19T13:38:43;42.80;18.20
79571;DHT22;69034;49.444;7.758;2023-09-19T13:42:43;43.10;17.90
79571;DHT22;69034;49.444;7.758;2023-09-19T13:46:44;41.90;18.40
79571;DHT22;69034;49.444;7.758;2023-09-19T13:50:46;41.40;18.80
79571;DHT22;69034;49.444;7.758;2023-09-19T13:54:47;41.50;18.80
79571;DHT22;69034;49.444;7.758;2023-09-19T13:58:48;41.70;18.80
79571;DHT22;69034;49.444;7.758;2023-09-19T14:02:48;41.80;18.60
79571;DHT22;69034;49.444;7.758;2023-09-19T14:06:49;41.50;18.70
79571;DHT22;69034;49.444;7.758;2023-09-19T14:10:50;40.70;19.10
79571;DHT22;69034;49.444;7.758;2023-09-19T14:14:50;40.20;19.40
79571;DHT22;69034;49.444;7.758;2023-09-19T14:18:51;39.10;19.90
79571;DHT22;69034;49.444;7.758;2023-09-19T14:22:53;38.50;24.40
79571;DHT22;69034;49.444;7.758;2023-09-19T14:26:54;38.80;24.30
79571;DHT22;69034;49.444;7.758;2023-09-19T14:30:57;39.00;24.30
79571;DHT22;69034;49.444;7.758;2023-09-19T14:34:58;39.20;24.30
79571;DHT22;69034;49.444;7.758;2023-09-19T14:38:59;38.90;24.10
79571;DHT22;69034;49.444;7.758;2023-09-19T14:43:00;38.20;24.40
79571;DHT22;69034;49.444;7.758;2023-09-19T14:47:00;37.60;24.80
79571;DHT22;69034;49.444;7.758;2023-09-19T14:51:04;36.60;25.40
79571;DHT22;69034;49.444;7.758;2023-09-19T14:55:06;36.10;25.60
79571;DHT22;69034;49.444;7.758;2023-09-19T14:59:09;36.80;25.20
79571;DHT22;69034;49.444;7.758;2023-09-19T15:03:11;37.60;24.80
79571;DHT22;69034;49.444;7.758;2023-09-19T15:07:12;38.10;24.60
79571;DHT22;69034;49.444;7.758;2023-09-19T15:11:19;37.90;24.60
79571;DHT22;69034;49.444;7.758;2023-09-19T15:15:20;37.60;24.90
79571;DHT22;69034;49.444;7.758;2023-09-19T15:19:21;37.40;24.70
79571;DHT22;69034;49.444;7.758;2023-09-19T15:23:23;37.30;24.60
79571;DHT22;69034;49.444;7.758;2023-09-19T15:27:23;37.50;24.20
79571;DHT22;69034;49.444;7.758;2023-09-19T15:31:24;37.60;24.40
79571;DHT22;69034;49.444;7.758;2023-09-19T15:35:26;37.00;24.70
79571;DHT22;69034;49.444;7.758;2023-09-19T15:39:30;36.30;25.20
79571;DHT22;69034;49.444;7.758;2023-09-19T15:43:33;35.60;25.60
79571;DHT22;69034;49.444;7.758;2023-09-19T15:47:35;34.90;26.20
79571;DHT22;69034;49.444;7.758;2023-09-19T15:51:36;34.30;26.70
79571;DHT22;69034;49.444;7.758;2023-09-19T15:55:40;32.90;27.90
79571;DHT22;69034;49.444;7.758;2023-09-19T15:59:41;33.10;28.00
79571;DHT22;69034;49.444;7.758;2023-09-19T16:03:52;31.90;29.10
79571;DHT22;69034;49.444;7.758;2023-09-19T16:07:54;31.80;29.40
79571;DHT22;69034;49.444;7.758;2023-09-19T16:11:54;31.20;30.00
79571;DHT22;69034;49.444;7.758;2023-09-19T16:15:55;30.90;30.30
79571;DHT22;69034;49.444;7.758;2023-09-19T16:19:56;30.90;30.60
79571;DHT22;69034;49.444;7.758;2023-09-19T16:23:58;31.00;30.70
79571;DHT22;69034;49.444;7.758;2023-09-19T16:27:59;30.80;31.20
79571;DHT22;69034;49.444;7.758;2023-09-19T16:31:59;30.60;31.40
79571;DHT22;69034;49.444;7.758;2023-09-19T16:36:01;30.40;31.80
79571;DHT22;69034;49.444;7.758;2023-09-19T16:40:01;30.20;32.10
79571;DHT22;69034;49.444;7.758;2023-09-19T16:44:04;30.10;32.40
79571;DHT22;69034;49.444;7.758;2023-09-19T16:48:07;29.70;33.10
79571;DHT22;69034;49.444;7.758;2023-09-19T16:52:08;28.90;34.10
79571;DHT22;69034;49.444;7.758;2023-09-19T16:56:11;28.40;34.70
79571;DHT22;69034;49.444;7.758;2023-09-19T17:00:15;28.10;35.20
79571;DHT22;69034;49.444;7.758;2023-09-19T17:04:17;27.60;36.10
79571;DHT22;69034;49.444;7.758;2023-09-19T17:08:18;27.10;36.70
79571;DHT22;69034;49.444;7.758;2023-09-19T17:12:19;26.70;37.20
79571;DHT22;69034;49.444;7.758;2023-09-19T17:16:20;26.40;38.10
79571;DHT22;69034;49.444;7.758;2023-09-19T17:20:21;26.10;38.60
79571;DHT22;69034;49.444;7.758;2023-09-19T17:24:23;25.80;39.20
79571;DHT22;69034;49.444;7.758;2023-09-19T17:28:23;25.50;39.70
79571;DHT22;69034;49.444;7.758;2023-09-19T17:32:24;25.30;39.90
79571;DHT22;69034;49.444;7.758;2023-09-19T17:36:26;25.10;40.20
79571;DHT22;69034;49.444;7.758;2023-09-19T17:40:27;25.00;40.60
79571;DHT22;69034;49.444;7.758;2023-09-19T17:44:28;24.80;40.80
79571;DHT22;69034;49.444;7.758;2023-09-19T17:48:34;24.70;41.20
79571;DHT22;69034;49.444;7.758;2023-09-19T17:52:36;24.50;41.40
79571;DHT22;69034;49.444;7.758;2023-09-19T17:56:37;24.40;41.90
79571;DHT22;69034;49.444;7.758;2023-09-19T18:00:40;24.20;42.10
79571;DHT22;69034;49.444;7.758;2023-09-19T18:04:42;24.10;42.40
79571;DHT22;69034;49.444;7.758;2023-09-19T18:08:45;24.00;42.70
79571;DHT22;69034;49.444;7.758;2023-09-19T18:12:45;23.80;42.90
79571;DHT22;69034;49.444;7.758;2023-09-19T18:16:47;23.70;43.20
79571;DHT22;69034;49.444;7.758;2023-09-19T18:20:48;23.50;43.50
79571;DHT22;69034;49.444;7.758;2023-09-19T18:24:48;23.40;44.00
79571;DHT22;69034;49.444;7.758;2023-09-19T18:28:50;23.30;44.20
79571;DHT22;69034;49.444;7.758;2023-09-19T18:32:50;23.20;44.50
79571;DHT22;69034;49.444;7.758;2023-09-19T18:36:51;23.10;44.80
79571;DHT22;69034;49.444;7.758;2023-09-19T18:40:55;23.00;45.00
79571;DHT22;69034;49.444;7.758;2023-09-19T18:44:55;22.90;45.10
79571;DHT22;69034;49.444;7.758;2023-09-19T18:48:58;22.80;45.20
79571;DHT22;69034;49.444;7.758;2023-09-19T18:52:59;22.80;45.50
79571;DHT22;69034;49.444;7.758;2023-09-19T18:57:02;22.70;45.90
79571;DHT22;69034;49.444;7.758;2023-09-19T19:01:05;22.70;45.90
79571;DHT22;69034;49.444;7.758;2023-09-19T19:05:07;22.60;46.20
79571;DHT22;69034;49.444;7.758;2023-09-19T19:09:11;22.50;46.40
79571;DHT22;69034;49.444;7.758;2023-09-19T19:13:12;22.50;46.50
79571;DHT22;69034;49.444;7.758;2023-09-19T19:17:13;22.50;46.70
79571;DHT22;69034;49.444;7.758;2023-09-19T19:21:19;22.40;46.90
79571;DHT22;69034;49.444;7.758;2023-09-19T19:25:20;22.40;47.20
79571;DHT22;69034;49.444;7.758;2023-09-19T19:29:21;22.40;47.60
79571;DHT22;69034;49.444;7.758;2023-09-19T19:33:21;22.50;47.90
79571;DHT22;69034;49.444;7.758;2023-09-19T19:37:24;22.70;48.00
79571;DHT22;69034;49.444;7.758;2023-09-19T19:41:27;22.80;48.10
79571;DHT22;69034;49.444;7.758;2023-09-19T19:45:28;22.90;48.00
79571;DHT22;69034;49.444;7.758;2023-09-19T19:49:29;23.00;48.00
79571;DHT22;69034;49.444;7.758;2023-09-19T19:53:29;23.00;48.00
79571;DHT22;69034;49.444;7.758;2023-09-19T19:57:30;23.00;48.00
79571;DHT22;69034;49.444;7.758;2023-09-19T20:01:32;23.00;47.90
79571;DHT22;69034;49.444;7.758;2023-09-19T20:05:37;23.00;48.00
79571;DHT22;69034;49.444;7.758;2023-09-19T20:09:39;23.00;48.00
79571;DHT22;69034;49.444;7.758;2023-09-19T20:13:41;23.00;47.90
79571;DHT22;69034;49.444;7.758;2023-09-19T20:17:42;23.00;47.90
79571;DHT22;69034;49.444;7.758;2023-09-19T20:21:43;22.80;47.80
79571;DHT22;69034;49.444;7.758;2023-09-19T20:25:46;22.70;47.90
79571;DHT22;69034;49.444;7.758;2023-09-19T20:29:47;22.50;47.80
79571;DHT22;69034;49.444;7.758;2023-09-19T20:33:48;22.50;47.80
79571;DHT22;69034;49.444;7.758;2023-09-19T20:37:49;22.40;47.80
79571;DHT22;69034;49.444;7.758;2023-09-19T20:41:52;22.20;47.90
79571;DHT22;69034;49.444;7.758;2023-09-19T20:45:54;21.90;48.10
79571;DHT22;69034;49.444;7.758;2023-09-19T20:49:56;21.70;48.30
79571;DHT22;69034;49.444;7.758;2023-09-19T20:53:57;21.50;48.40
79571;DHT22;69034;49.444;7.758;2023-09-19T20:58:00;21.40;48.60
79571;DHT22;69034;49.444;7.758;2023-09-19T21:02:01;21.20;48.70
79571;DHT22;69034;49.444;7.758;2023-09-19T21:06:06;21.10;48.80
79571;DHT22;69034;49.444;7.758;2023-09-19T21:10:07;21.00;49.00
79571;DHT22;69034;49.444;7.758;2023-09-19T21:14:09;20.90;49.00
79571;DHT22;69034;49.444;7.758;2023-09-19T21:18:10;20.80;49.20
79571;DHT22;69034;49.444;7.758;2023-09-19T21:22:11;20.70;49.30
79571;DHT22;69034;49.444;7.758;2023-09-19T21:26:13;20.60;49.30
79571;DHT22;69034;49.444;7.758;2023-09-19T21:30:17;20.60;49.50
79571;DHT22;69034;49.444;7.758;2023-09-19T21:34:23;20.50;49.60
79571;DHT22;69034;49.444;7.758;2023-09-19T21:38:25;20.50;49.60
79571;DHT22;69034;49.444;7.758;2023-09-19T21:42:27;20.40;49.70
79571;DHT22;69034;49.444;7.758;2023-09-19T21:46:29;20.40;49.80
79571;DHT22;69034;49.444;7.758;2023-09-19T21:50:30;20.30;49.90
79571;DHT22;69034;49.444;7.758;2023-09-19T21:54:35;20.20;49.90
79571;DHT22;69034;49.444;7.758;2023-09-19T21:58:37;20.20;50.00
79571;DHT22;69034;49.444;7.758;2023-09-19T22:02:38;20.10;50.10
79571;DHT22;69034;49.444;7.758;2023-09-19T22:06:39;20.10;50.10
79571;DHT22;69034;49.444;7.758;2023-09-19T22:10:47;20.00;50.30
79571;DHT22;69034;49.444;7.758;2023-09-19T22:14:50;20.10;50.50
79571;DHT22;69034;49.444;7.758;2023-09-19T22:18:57;20.20;50.30
79571;DHT22;69034;49.444;7.758;2023-09-19T22:22:59;20.30;50.30
79571;DHT22;69034;49.444;7.758;2023-09-19T22:27:00;20.40;50.30
79571;DHT22;69034;49.444;7.758;2023-09-19T22:31:22;20.50;50.30
79571;DHT22;69034;49.444;7.758;2023-09-19T22:35:31;20.50;50.30
79571;DHT22;69034;49.444;7.758;2023-09-19T22:39:32;20.50;50.20
79571;DHT22;69034;49.444;7.758;2023-09-19T22:43:36;20.60;50.30
79571;DHT22;69034;49.444;7.758;2023-09-19T22:47:42;20.60;50.20
79571;DHT22;69034;49.444;7.758;2023-09-19T22:51:47;20.60;50.20
79571;DHT22;69034;49.444;7.758;2023-09-19T22:55:54;20.60;50.30
79571;DHT22;69034;49.444;7.758;2023-09-19T22:59:56;20.60;50.40
79571;DHT22;69034;49.444;7.758;2023-09-19T23:03:57;20.60;50.50
79571;DHT22;69034;49.444;7.758;2023-09-19T23:08:16;20.50;50.50
79571;DHT22;69034;49.444;7.758;2023-09-19T23:12:18;20.50;50.60
79571;DHT22;69034;49.444;7.758;2023-09-19T23:16:21;20.40;50.60
79571;DHT22;69034;49.444;7.758;2023-09-19T23:20:29;20.40;50.60
79571;DHT22;69034;49.444;7.758;2023-09-19T23:24:39;20.30;50.80
79571;DHT22;69034;49.444;7.758;2023-09-19T23:28:42;20.20;50.90
79571;DHT22;69034;49.444;7.758;2023-09-19T23:32:53;20.10;50.90
79571;DHT22;69034;49.444;7.758;2023-09-19T23:36:55;20.10;51.00
79571;DHT22;69034;49.444;7.758;2023-09-19T23:40:56;20.00;51.10
79571;DHT22;69034;49.444;7.758;2023-09-19T23:44:58;20.00;51.10
79571;DHT22;69034;49.444;7.758;2023-09-19T23:48:58;19.90;51.10
79571;DHT22;69034;49.444;7.758;2023-09-19T23:53:01;19.90;51.00
79571;DHT22;69034;49.444;7.758;2023-09-19T23:57:06;19.80;51.10
